Time,TemperatureF,DewpointF,PressureIn,WindDirection,WindDirectionDegrees,WindSpeedMPH,WindSpeedGustMPH,Humidity,HourlyPrecipIn,Conditions,Clouds,dailyrainin,SoftwareType,DateUTC
2014-03-05 00:01:00,55.4,54.0,30.03,NE,54,0.0,4.0,95,0.00,,,0.00,WeatherTracker,2014-03-05 08:01:00,
2014-03-05 00:06:00,55.5,54.1,30.03,NE,54,0.0,4.0,95,0.00,,,0.00,WeatherTracker,2014-03-05 08:06:00,
2014-03-05 00:11:00,55.5,54.1,30.03,NE,55,5.0,5.0,95,0.00,,,0.00,WeatherTracker,2014-03-05 08:11:00,
2014-03-05 00:16:00,55.5,54.1,30.02,ENE,69,5.0,7.0,95,0.00,,,0.00,WeatherTracker,2014-03-05 08:16:00,
2014-03-05 00:22:00,55.7,54.3,30.02,ENE,77,4.0,7.0,95,0.00,,,0.00,WeatherTracker,2014-03-05 08:22:00,
2014-03-05 00:27:00,55.5,54.1,30.02,ENE,78,3.0,7.0,95,0.00,,,0.00,WeatherTracker,2014-03-05 08:27:00,
2014-03-05 00:32:00,55.5,54.1,30.02,ENE,78,6.0,7.0,95,0.00,,,0.00,WeatherTracker,2014-03-05 08:32:00,
2014-03-05 00:37:00,55.4,54.0,30.02,ENE,78,5.0,6.0,95,0.00,,,0.00,WeatherTracker,2014-03-05 08:37:00,
2014-03-05 00:42:00,55.5,54.1,30.02,ENE,78,2.0,6.0,95,0.00,,,0.00,WeatherTracker,2014-03-05 08:42:00,
2014-03-05 00:47:00,55.5,54.1,30.02,ENE,78,1.0,5.0,95,0.00,,,0.00,WeatherTracker,2014-03-05 08:47:00,
2014-03-05 00:52:00,55.5,54.1,30.02,NE,52,4.0,5.0,95,0.00,,,0.00,WeatherTracker,2014-03-05 08:52:00,
2014-03-05 00:57:00,55.5,54.1,30.02,NE,53,2.0,5.0,95,0.00,,,0.00,WeatherTracker,2014-03-05 08:57:00,
2014-03-05 01:02:00,55.4,54.0,30.02,NE,53,1.0,5.0,95,0.00,,,0.00,WeatherTracker,2014-03-05 09:02:00,
2014-03-05 01:07:00,55.5,54.1,30.02,NE,52,1.0,2.0,95,0.00,,,0.00,WeatherTracker,2014-03-05 09:07:00,
2014-03-05 01:12:00,55.5,54.1,30.02,NE,53,2.0,4.0,95,0.00,,,0.00,WeatherTracker,2014-03-05 09:12:00,
2014-03-05 01:17:00,55.5,54.1,30.02,NE,53,2.0,4.0,95,0.00,,,0.00,WeatherTracker,2014-03-05 09:17:00,
2014-03-05 01:22:00,55.5,54.1,30.02,NE,52,3.0,4.0,95,0.00,,,0.00,WeatherTracker,2014-03-05 09:22:00,
2014-03-05 01:27:00,55.5,54.1,30.02,NE,53,0.0,4.0,95,0.00,,,0.00,WeatherTracker,2014-03-05 09:27:00,
2014-03-05 01:32:00,55.6,54.2,30.03,NE,52,2.0,4.0,95,0.00,,,0.00,WeatherTracker,2014-03-05 09:32:00,
2014-03-05 01:37:00,55.6,54.2,30.03,NE,53,0.0,4.0,95,0.00,,,0.00,WeatherTracker,2014-03-05 09:37:00,
2014-03-05 01:42:00,55.6,54.2,30.03,NE,52,0.0,2.0,95,0.00,,,0.00,WeatherTracker,2014-03-05 09:42:00,
2014-03-05 01:47:00,55.5,54.1,30.03,NE,52,0.0,1.0,95,0.00,,,0.00,WeatherTracker,2014-03-05 09:47:00,
2014-03-05 01:52:00,55.6,54.2,30.03,NE,53,0.0,0.0,95,0.00,,,0.00,WeatherTracker,2014-03-05 09:52:00,
2014-03-05 01:57:00,55.6,54.2,30.03,NE,53,0.0,0.0,95,0.00,,,0.00,WeatherTracker,2014-03-05 09:57:00,
2014-03-05 02:02:00,55.6,54.2,30.04,NE,53,0.0,0.0,95,0.00,,,0.00,WeatherTracker,2014-03-05 10:02:00,
2014-03-05 02:07:00,55.7,54.3,30.04,NE,53,0.0,0.0,95,0.00,,,0.00,WeatherTracker,2014-03-05 10:07:00,
2014-03-05 02:13:00,55.7,54.3,30.04,NE,53,1.0,2.0,95,0.00,,,0.00,WeatherTracker,2014-03-05 10:13:00,
2014-03-05 02:18:00,55.8,54.4,30.02,NE,53,1.0,3.0,95,0.00,,,0.00,WeatherTracker,2014-03-05 10:18:00,
2014-03-05 02:23:00,55.7,54.3,30.02,ENE,65,2.0,4.0,95,0.00,,,0.00,WeatherTracker,2014-03-05 10:23:00,
2014-03-05 02:28:00,55.7,54.3,30.02,ENE,66,2.0,4.0,95,0.00,,,0.00,WeatherTracker,2014-03-05 10:28:00,
2014-03-05 02:33:00,55.7,54.3,30.02,ENE,65,0.0,4.0,95,0.00,,,0.00,WeatherTracker,2014-03-05 10:33:00,
2014-03-05 02:38:00,55.7,54.3,30.02,ENE,66,0.0,3.0,95,0.00,,,0.00,WeatherTracker,2014-03-05 10:38:00,
2014-03-05 02:43:00,55.6,54.2,30.02,ENE,66,0.0,2.0,95,0.00,,,0.00,WeatherTracker,2014-03-05 10:43:00,
2014-03-05 02:48:00,55.7,54.3,30.02,ENE,66,0.0,2.0,95,0.00,,,0.00,WeatherTracker,2014-03-05 10:48:00,
2014-03-05 02:53:00,55.7,54.3,30.02,ENE,66,2.0,2.0,95,0.00,,,0.00,WeatherTracker,2014-03-05 10:53:00,
2014-03-05 02:58:00,55.7,54.3,30.02,ENE,65,0.0,2.0,95,0.00,,,0.00,WeatherTracker,2014-03-05 10:58:00,
2014-03-05 03:03:00,55.6,54.2,30.01,ENE,66,0.0,2.0,95,0.00,,,0.00,WeatherTracker,2014-03-05 11:03:00,
2014-03-05 03:08:00,55.6,54.2,30.01,ENE,66,0.0,1.0,95,0.00,,,0.00,WeatherTracker,2014-03-05 11:08:00,
2014-03-05 03:13:00,55.6,54.2,30.01,ENE,66,0.0,0.0,95,0.00,,,0.00,WeatherTracker,2014-03-05 11:13:00,
2014-03-05 03:18:00,55.6,54.2,30.02,ENE,66,2.0,2.0,95,0.00,,,0.00,WeatherTracker,2014-03-05 11:18:00,
2014-03-05 03:23:00,55.6,54.2,30.02,ENE,66,1.0,3.0,95,0.00,,,0.00,WeatherTracker,2014-03-05 11:23:00,
2014-03-05 03:28:00,55.6,54.2,30.02,ENE,66,1.0,3.0,95,0.00,,,0.00,WeatherTracker,2014-03-05 11:28:00,
2014-03-05 03:33:00,55.6,54.2,30.02,ENE,65,0.0,3.0,95,0.00,,,0.00,WeatherTracker,2014-03-05 11:33:00,
2014-03-05 03:39:00,55.6,54.2,30.02,ENE,65,0.0,3.0,95,0.00,,,0.00,WeatherTracker,2014-03-05 11:39:00,
2014-03-05 03:44:00,55.5,54.1,30.02,ENE,66,0.0,0.0,95,0.00,,,0.00,WeatherTracker,2014-03-05 11:44:00,
2014-03-05 03:49:00,55.5,54.1,30.02,ENE,65,0.0,1.0,95,0.00,,,0.00,WeatherTracker,2014-03-05 11:49:00,
2014-03-05 03:54:00,55.5,54.1,30.02,ENE,65,0.0,1.0,95,0.00,,,0.00,WeatherTracker,2014-03-05 11:54:00,
2014-03-05 03:59:00,55.6,54.2,30.01,ENE,65,0.0,0.0,95,0.00,,,0.00,WeatherTracker,2014-03-05 11:59:00,
2014-03-05 04:04:00,55.7,54.3,30.01,ENE,66,2.0,2.0,95,0.00,,,0.00,WeatherTracker,2014-03-05 12:04:00,
2014-03-05 04:09:00,55.7,54.3,30.01,ENE,65,2.0,3.0,95,0.00,,,0.00,WeatherTracker,2014-03-05 12:09:00,
2014-03-05 04:14:00,55.7,54.3,30.01,ENE,66,2.0,3.0,95,0.00,,,0.00,WeatherTracker,2014-03-05 12:14:00,
2014-03-05 04:19:00,55.7,54.3,30.01,ENE,66,0.0,3.0,95,0.00,,,0.00,WeatherTracker,2014-03-05 12:19:00,
2014-03-05 04:24:00,55.6,54.2,30.01,ENE,66,0.0,3.0,95,0.00,,,0.00,WeatherTracker,2014-03-05 12:24:00,
2014-03-05 04:29:00,55.5,54.1,30.01,ENE,65,0.0,0.0,95,0.00,,,0.00,WeatherTracker,2014-03-05 12:29:00,
2014-03-05 04:34:00,55.5,54.4,30.01,ENE,65,0.0,0.0,96,0.00,,,0.00,WeatherTracker,2014-03-05 12:34:00,
2014-03-05 04:39:00,55.4,54.3,30.01,ENE,65,0.0,0.0,96,0.00,,,0.00,WeatherTracker,2014-03-05 12:39:00,
2014-03-05 04:44:00,55.3,54.2,30.01,ENE,65,0.0,0.0,96,0.00,,,0.00,WeatherTracker,2014-03-05 12:44:00,
2014-03-05 04:49:00,55.2,54.1,30.01,ENE,66,0.0,0.0,96,0.00,,,0.00,WeatherTracker,2014-03-05 12:49:00,
2014-03-05 04:54:00,55.1,53.7,30.01,ENE,66,0.0,0.0,95,0.00,,,0.00,WeatherTracker,2014-03-05 12:54:00,
2014-03-05 04:59:00,55.1,53.7,30.00,ENE,66,0.0,0.0,95,0.00,,,0.00,WeatherTracker,2014-03-05 12:59:00,
2014-03-05 05:04:00,55.1,54.0,30.00,ENE,65,0.0,0.0,96,0.00,,,0.00,WeatherTracker,2014-03-05 13:04:00,
2014-03-05 05:09:00,55.1,54.0,30.00,ENE,66,0.0,0.0,96,0.00,,,0.00,WeatherTracker,2014-03-05 13:09:00,
2014-03-05 05:14:00,55.0,53.9,30.00,ENE,66,0.0,0.0,96,0.00,,,0.00,WeatherTracker,2014-03-05 13:14:00,
2014-03-05 05:20:00,54.9,53.8,30.00,ENE,66,0.0,0.0,96,0.00,,,0.00,WeatherTracker,2014-03-05 13:20:00,
2014-03-05 05:25:00,54.9,53.8,30.00,ENE,66,0.0,0.0,96,0.00,,,0.00,WeatherTracker,2014-03-05 13:25:00,
2014-03-05 05:30:00,54.9,53.8,30.00,ENE,66,0.0,0.0,96,0.00,,,0.00,WeatherTracker,2014-03-05 13:30:00,
2014-03-05 05:35:00,54.9,53.8,30.00,ENE,66,0.0,0.0,96,0.00,,,0.00,WeatherTracker,2014-03-05 13:35:00,
2014-03-05 05:40:00,54.8,53.7,30.00,ENE,65,0.0,0.0,96,0.00,,,0.00,WeatherTracker,2014-03-05 13:40:00,
2014-03-05 05:45:00,54.9,53.8,30.01,ENE,66,0.0,0.0,96,0.00,,,0.00,WeatherTracker,2014-03-05 13:45:00,
2014-03-05 05:50:00,54.9,53.8,30.01,ENE,65,0.0,0.0,96,0.00,,,0.00,WeatherTracker,2014-03-05 13:50:00,
2014-03-05 05:55:00,54.9,53.8,30.01,ENE,66,0.0,0.0,96,0.00,,,0.00,WeatherTracker,2014-03-05 13:55:00,
2014-03-05 06:00:00,55.0,53.9,30.01,ENE,66,0.0,0.0,96,0.00,,,0.00,WeatherTracker,2014-03-05 14:00:00,
2014-03-05 06:05:00,55.0,53.9,30.01,ENE,66,0.0,0.0,96,0.00,,,0.00,WeatherTracker,2014-03-05 14:05:00,
2014-03-05 06:10:00,55.0,53.9,30.01,ENE,66,0.0,0.0,96,0.00,,,0.00,WeatherTracker,2014-03-05 14:10:00,
2014-03-05 06:15:00,55.0,53.9,30.01,ENE,66,0.0,0.0,96,0.00,,,0.00,WeatherTracker,2014-03-05 14:15:00,
2014-03-05 06:20:00,55.0,53.9,30.01,ENE,66,0.0,0.0,96,0.00,,,0.00,WeatherTracker,2014-03-05 14:20:00,
2014-03-05 06:25:00,54.9,53.8,30.01,ENE,65,0.0,0.0,96,0.00,,,0.00,WeatherTracker,2014-03-05 14:25:00,
2014-03-05 06:30:00,54.9,53.8,30.01,ENE,65,0.0,0.0,96,0.00,,,0.00,WeatherTracker,2014-03-05 14:30:00,
2014-03-05 06:35:00,54.9,53.8,30.01,ENE,65,0.0,0.0,96,0.00,,,0.00,WeatherTracker,2014-03-05 14:35:00,
2014-03-05 06:40:00,54.9,53.8,30.01,ENE,65,0.0,0.0,96,0.00,,,0.00,WeatherTracker,2014-03-05 14:40:00,
2014-03-05 06:46:00,55.0,53.9,30.01,ENE,66,0.0,0.0,96,0.00,,,0.00,WeatherTracker,2014-03-05 14:46:00,
2014-03-05 06:51:00,55.0,53.9,30.01,ENE,66,0.0,0.0,96,0.00,,,0.00,WeatherTracker,2014-03-05 14:51:00,
2014-03-05 06:56:00,55.0,53.9,30.01,ENE,66,0.0,0.0,96,0.00,,,0.00,WeatherTracker,2014-03-05 14:56:00,
2014-03-05 07:01:00,55.1,54.0,30.01,ENE,66,0.0,0.0,96,0.00,,,0.00,WeatherTracker,2014-03-05 15:01:00,
2014-03-05 07:06:00,55.1,54.0,30.01,ENE,66,0.0,0.0,96,0.00,,,0.00,WeatherTracker,2014-03-05 15:06:00,
2014-03-05 07:11:00,55.0,53.9,30.01,ENE,66,1.0,2.0,96,0.00,,,0.00,WeatherTracker,2014-03-05 15:11:00,
2014-03-05 07:16:00,55.1,54.0,30.01,ENE,66,0.0,2.0,96,0.00,,,0.00,WeatherTracker,2014-03-05 15:16:00,
2014-03-05 07:21:00,55.1,54.0,30.01,ENE,66,0.0,2.0,96,0.00,,,0.00,WeatherTracker,2014-03-05 15:21:00,
2014-03-05 07:26:00,55.2,54.1,30.01,ENE,65,0.0,0.0,96,0.00,,,0.00,WeatherTracker,2014-03-05 15:26:00,
2014-03-05 07:31:00,55.3,54.2,30.01,ENE,66,0.0,0.0,96,0.00,,,0.00,WeatherTracker,2014-03-05 15:31:00,
2014-03-05 07:36:00,55.3,54.2,30.01,ENE,66,0.0,0.0,96,0.00,,,0.00,WeatherTracker,2014-03-05 15:36:00,
2014-03-05 07:41:00,55.4,54.3,30.01,ENE,65,0.0,0.0,96,0.00,,,0.00,WeatherTracker,2014-03-05 15:41:00,
2014-03-05 07:46:00,55.4,55.1,30.02,ENE,65,0.0,1.0,99,0.00,,,0.00,WeatherTracker,2014-03-05 15:46:00,
2014-03-05 07:51:00,55.4,54.3,30.02,ENE,66,0.0,1.0,96,0.00,,,0.00,WeatherTracker,2014-03-05 15:51:00,
2014-03-05 07:56:00,55.5,54.4,30.02,ENE,66,0.0,0.0,96,0.00,,,0.00,WeatherTracker,2014-03-05 15:56:00,
2014-03-05 08:01:00,55.6,54.5,30.02,ENE,66,0.0,0.0,96,0.00,,,0.00,WeatherTracker,2014-03-05 16:01:00,
2014-03-05 08:06:00,55.7,54.6,30.02,ENE,65,0.0,2.0,96,0.00,,,0.00,WeatherTracker,2014-03-05 16:06:00,
2014-03-05 08:11:00,55.8,54.7,30.02,ENE,66,0.0,2.0,96,0.00,,,0.00,WeatherTracker,2014-03-05 16:11:00,
2014-03-05 08:16:00,55.9,54.8,30.03,ENE,65,0.0,2.0,96,0.00,,,0.00,WeatherTracker,2014-03-05 16:16:00,
2014-03-05 08:21:00,55.8,54.7,30.03,ENE,66,1.0,2.0,96,0.00,,,0.00,WeatherTracker,2014-03-05 16:21:00,
2014-03-05 08:26:00,55.8,54.7,30.03,ENE,65,1.0,3.0,96,0.00,,,0.00,WeatherTracker,2014-03-05 16:26:00,
2014-03-05 08:32:00,55.8,54.7,30.02,ENE,65,0.0,3.0,96,0.00,,,0.00,WeatherTracker,2014-03-05 16:32:00,
2014-03-05 08:37:00,55.9,54.8,30.02,ENE,66,0.0,1.0,96,0.00,,,0.00,WeatherTracker,2014-03-05 16:37:00,
2014-03-05 08:42:00,56.1,55.0,30.02,ENE,65,0.0,0.0,96,0.00,,,0.00,WeatherTracker,2014-03-05 16:42:00,
2014-03-05 08:47:00,56.2,55.1,30.02,ENE,65,0.0,0.0,96,0.00,,,0.00,WeatherTracker,2014-03-05 16:47:00,
2014-03-05 08:52:00,56.2,55.1,30.02,ENE,66,0.0,0.0,96,0.00,,,0.00,WeatherTracker,2014-03-05 16:52:00,
2014-03-05 08:57:00,56.3,55.2,30.02,ENE,66,0.0,0.0,96,0.00,,,0.00,WeatherTracker,2014-03-05 16:57:00,
2014-03-05 09:02:00,56.8,55.7,30.02,ENE,66,2.0,2.0,96,0.00,,,0.00,WeatherTracker,2014-03-05 17:02:00,
2014-03-05 09:07:00,57.1,56.0,30.02,ENE,65,1.0,3.0,96,0.00,,,0.00,WeatherTracker,2014-03-05 17:07:00,
2014-03-05 09:12:00,57.3,56.2,30.02,South,176,7.0,7.0,96,0.00,,,0.00,WeatherTracker,2014-03-05 17:12:00,
2014-03-05 09:17:00,57.2,56.1,30.03,SW,218,2.0,7.0,96,0.00,,,0.00,WeatherTracker,2014-03-05 17:17:00,
2014-03-05 09:22:00,57.3,55.9,30.03,SW,223,4.0,7.0,95,0.00,,,0.00,WeatherTracker,2014-03-05 17:22:00,
2014-03-05 09:27:00,57.4,56.0,30.03,SW,230,3.0,7.0,95,0.00,,,0.00,WeatherTracker,2014-03-05 17:27:00,
2014-03-05 09:32:00,57.6,56.2,30.03,SW,230,3.0,7.0,95,0.00,,,0.00,WeatherTracker,2014-03-05 17:32:00,
2014-03-05 09:37:00,57.7,56.0,30.03,SW,225,1.0,7.0,94,0.00,,,0.00,WeatherTracker,2014-03-05 17:37:00,
2014-03-05 09:42:00,57.8,55.8,30.03,SW,225,3.0,7.0,93,0.00,,,0.00,WeatherTracker,2014-03-05 17:42:00,
2014-03-05 09:47:00,58.0,56.0,30.02,SW,225,0.0,4.0,93,0.00,,,0.00,WeatherTracker,2014-03-05 17:47:00,
2014-03-05 09:52:00,58.3,56.3,30.02,SW,225,1.0,4.0,93,0.00,,,0.00,WeatherTracker,2014-03-05 17:52:00,
2014-03-05 09:57:00,58.5,56.2,30.02,SW,229,4.0,4.0,92,0.00,,,0.00,WeatherTracker,2014-03-05 17:57:00,
2014-03-05 10:03:00,58.3,56.0,30.02,NNW,329,4.0,6.0,92,0.00,,,0.00,WeatherTracker,2014-03-05 18:03:00,
2014-03-05 10:08:00,58.6,56.3,30.02,NNW,336,4.0,6.0,92,0.00,,,0.00,WeatherTracker,2014-03-05 18:08:00,
2014-03-05 10:13:00,58.9,56.3,30.02,NNW,336,5.0,6.0,91,0.00,,,0.00,WeatherTracker,2014-03-05 18:13:00,
2014-03-05 10:18:00,59.2,56.6,30.03,NNW,338,4.0,6.0,91,0.00,,,0.00,WeatherTracker,2014-03-05 18:18:00,
2014-03-05 10:23:00,59.4,56.5,30.03,NNW,340,4.0,6.0,90,0.00,,,0.00,WeatherTracker,2014-03-05 18:23:00,
2014-03-05 10:28:00,59.5,56.6,30.03,NNW,340,4.0,6.0,90,0.00,,,0.00,WeatherTracker,2014-03-05 18:28:00,
2014-03-05 10:33:00,59.3,56.4,30.04,North,355,5.0,7.0,90,0.00,,,0.00,WeatherTracker,2014-03-05 18:33:00,
2014-03-05 10:38:00,58.8,55.9,30.04,North,355,4.0,7.0,90,0.00,,,0.00,WeatherTracker,2014-03-05 18:38:00,
2014-03-05 10:43:00,58.5,55.9,30.04,North,355,1.0,6.0,91,0.00,,,0.00,WeatherTracker,2014-03-05 18:43:00,
2014-03-05 10:48:00,58.9,56.3,30.04,WNW,283,7.0,12.0,91,0.00,,,0.00,WeatherTracker,2014-03-05 18:48:00,
2014-03-05 10:53:00,59.1,56.2,30.04,West,271,12.0,13.0,90,0.00,,,0.00,WeatherTracker,2014-03-05 18:53:00,
2014-03-05 10:58:00,58.8,55.9,30.04,West,264,3.0,14.0,90,0.00,,,0.00,WeatherTracker,2014-03-05 18:58:00,
2014-03-05 11:03:00,58.8,55.6,30.04,West,260,5.0,14.0,89,0.00,,,0.00,WeatherTracker,2014-03-05 19:03:00,
2014-03-05 11:08:00,58.6,55.4,30.04,South,187,7.0,15.0,89,0.00,,,0.00,WeatherTracker,2014-03-05 19:08:00,
2014-03-05 11:13:00,58.4,55.5,30.04,South,174,5.0,15.0,90,0.00,,,0.00,WeatherTracker,2014-03-05 19:13:00,
2014-03-05 11:18:00,57.7,54.8,30.04,SSE,162,3.0,15.0,90,0.00,,,0.00,WeatherTracker,2014-03-05 19:18:00,
2014-03-05 11:23:00,57.3,54.7,30.04,SSE,160,6.0,14.0,91,0.00,,,0.00,WeatherTracker,2014-03-05 19:23:00,
2014-03-05 11:29:00,57.5,54.9,30.02,SSE,156,10.0,20.0,91,0.00,,,0.00,WeatherTracker,2014-03-05 19:29:00,
2014-03-05 11:34:00,58.1,55.5,30.02,South,170,4.0,20.0,91,0.00,,,0.00,WeatherTracker,2014-03-05 19:34:00,
2014-03-05 11:39:00,58.6,56.0,30.02,South,188,6.0,14.0,91,0.00,,,0.00,WeatherTracker,2014-03-05 19:39:00,
2014-03-05 11:44:00,59.0,56.1,30.02,SW,222,4.0,15.0,90,0.00,,,0.00,WeatherTracker,2014-03-05 19:44:00,
2014-03-05 11:49:00,59.4,56.2,30.02,SW,214,13.0,16.0,89,0.00,,,0.00,WeatherTracker,2014-03-05 19:49:00,
2014-03-05 11:54:00,58.9,55.7,30.02,SSW,196,7.0,16.0,89,0.00,,,0.00,WeatherTracker,2014-03-05 19:54:00,
2014-03-05 11:59:00,58.7,55.5,30.03,SSW,209,8.0,15.0,89,0.00,,,0.00,WeatherTracker,2014-03-05 19:59:00,
2014-03-05 12:04:00,58.7,55.5,30.03,SW,222,4.0,14.0,89,0.00,,,0.00,WeatherTracker,2014-03-05 20:04:00,
2014-03-05 12:09:00,58.2,55.0,30.03,WNW,292,2.0,16.0,89,0.00,,,0.00,WeatherTracker,2014-03-05 20:09:00,
2014-03-05 12:14:00,58.2,55.0,30.02,South,179,6.0,16.0,89,0.00,,,0.00,WeatherTracker,2014-03-05 20:14:00,
2014-03-05 12:19:00,58.2,55.0,30.02,WSW,250,6.0,18.0,89,0.00,,,0.00,WeatherTracker,2014-03-05 20:19:00,
2014-03-05 12:24:00,58.3,55.1,30.02,South,187,7.0,18.0,89,0.00,,,0.00,WeatherTracker,2014-03-05 20:24:00,
2014-03-05 12:29:00,58.7,55.5,30.02,SSW,202,9.0,17.0,89,0.00,,,0.00,WeatherTracker,2014-03-05 20:29:00,
2014-03-05 12:34:00,59.1,55.5,30.02,SSW,204,3.0,17.0,88,0.00,,,0.00,WeatherTracker,2014-03-05 20:34:00,
2014-03-05 12:39:00,59.4,55.5,30.02,West,277,4.0,16.0,87,0.00,,,0.00,WeatherTracker,2014-03-05 20:39:00,
2014-03-05 12:44:00,59.4,55.5,30.01,SSW,211,9.0,18.0,87,0.00,,,0.00,WeatherTracker,2014-03-05 20:44:00,
2014-03-05 12:49:00,59.6,55.7,30.01,WSW,244,6.0,18.0,87,0.00,,,0.00,WeatherTracker,2014-03-05 20:49:00,
2014-03-05 12:54:00,59.5,55.6,30.01,SW,214,11.0,16.0,87,0.00,,,0.00,WeatherTracker,2014-03-05 20:54:00,
2014-03-05 12:59:00,59.5,55.6,30.01,SSW,199,3.0,13.0,87,0.00,,,0.00,WeatherTracker,2014-03-05 20:59:00,
2014-03-05 13:04:00,59.6,55.7,30.01,SSW,200,3.0,13.0,87,0.00,,,0.00,WeatherTracker,2014-03-05 21:04:00,
2014-03-05 13:09:00,59.7,55.8,30.01,SSW,194,6.0,13.0,87,0.00,,,0.00,WeatherTracker,2014-03-05 21:09:00,
2014-03-05 13:15:00,60.3,56.1,29.99,South,183,6.0,13.0,86,0.00,,,0.00,WeatherTracker,2014-03-05 21:15:00,
2014-03-05 13:20:00,60.5,56.3,29.99,South,175,7.0,16.0,86,0.00,,,0.00,WeatherTracker,2014-03-05 21:20:00,
2014-03-05 13:25:00,61.0,56.1,29.99,South,172,9.0,18.0,84,0.00,,,0.00,WeatherTracker,2014-03-05 21:25:00,
2014-03-05 13:30:00,61.6,56.0,29.98,SSE,157,6.0,18.0,82,0.00,,,0.00,WeatherTracker,2014-03-05 21:30:00,
2014-03-05 13:35:00,62.0,56.1,29.98,SSW,207,11.0,17.0,81,0.00,,,0.00,WeatherTracker,2014-03-05 21:35:00,
2014-03-05 13:40:00,62.5,56.2,29.98,SSW,206,7.0,17.0,80,0.00,,,0.00,WeatherTracker,2014-03-05 21:40:00,
2014-03-05 13:45:00,62.5,55.9,29.98,SW,215,8.0,14.0,79,0.00,,,0.00,WeatherTracker,2014-03-05 21:45:00,
2014-03-05 13:50:00,62.8,56.2,29.98,SW,215,9.0,15.0,79,0.00,,,0.00,WeatherTracker,2014-03-05 21:50:00,
2014-03-05 13:55:00,62.7,56.1,29.98,South,184,4.0,16.0,79,0.00,,,0.00,WeatherTracker,2014-03-05 21:55:00,
2014-03-05 14:00:00,62.7,56.1,29.96,SSW,205,15.0,16.0,79,0.00,,,0.00,WeatherTracker,2014-03-05 22:00:00,
2014-03-05 14:05:00,62.8,56.2,29.96,SW,219,8.0,16.0,79,0.00,,,0.00,WeatherTracker,2014-03-05 22:05:00,
2014-03-05 14:10:00,63.0,56.4,29.96,SW,220,12.0,16.0,79,0.00,,,0.00,WeatherTracker,2014-03-05 22:10:00,
2014-03-05 14:15:00,62.7,56.1,29.97,WSW,252,8.0,17.0,79,0.00,,,0.00,WeatherTracker,2014-03-05 22:15:00,
2014-03-05 14:20:00,62.1,56.2,29.97,SW,226,14.0,19.0,81,0.00,,,0.00,WeatherTracker,2014-03-05 22:20:00,
2014-03-05 14:25:00,62.0,56.1,29.97,WSW,240,13.0,19.0,81,0.00,,,0.00,WeatherTracker,2014-03-05 22:25:00,
2014-03-05 14:30:00,62.1,56.2,29.97,WSW,257,10.0,17.0,81,0.00,,,0.00,WeatherTracker,2014-03-05 22:30:00,
2014-03-05 14:35:00,62.4,56.1,29.97,South,191,9.0,16.0,80,0.00,,,0.00,WeatherTracker,2014-03-05 22:35:00,
2014-03-05 14:40:00,62.4,55.8,29.97,SW,217,10.0,17.0,79,0.00,,,0.00,WeatherTracker,2014-03-05 22:40:00,
2014-03-05 14:45:00,62.5,55.9,29.96,South,190,11.0,18.0,79,0.00,,,0.00,WeatherTracker,2014-03-05 22:45:00,
2014-03-05 14:50:00,62.3,55.3,29.96,South,179,7.0,18.0,78,0.00,,,0.00,WeatherTracker,2014-03-05 22:50:00,
2014-03-05 14:55:00,62.2,55.3,29.96,South,187,13.0,21.0,78,0.00,,,0.00,WeatherTracker,2014-03-05 22:55:00,
2014-03-05 15:00:00,62.0,55.4,29.96,WSW,252,19.0,21.0,79,0.00,,,0.00,WeatherTracker,2014-03-05 23:00:00,
2014-03-05 15:05:00,62.0,55.4,29.96,SSW,207,11.0,19.0,79,0.00,,,0.00,WeatherTracker,2014-03-05 23:05:00,
2014-03-05 15:10:00,61.7,55.5,29.96,South,176,9.0,21.0,80,0.00,,,0.00,WeatherTracker,2014-03-05 23:10:00,
2014-03-05 15:15:00,62.0,55.4,29.96,SSW,196,13.0,21.0,79,0.00,,,0.00,WeatherTracker,2014-03-05 23:15:00,
2014-03-05 15:20:00,62.4,55.4,29.96,SSW,192,6.0,20.0,78,0.00,,,0.00,WeatherTracker,2014-03-05 23:20:00,
2014-03-05 15:26:00,62.7,55.4,29.96,SSW,200,7.0,19.0,77,0.00,,,0.00,WeatherTracker,2014-03-05 23:26:00,
2014-03-05 15:31:00,62.6,55.3,29.96,South,185,14.0,19.0,77,0.00,,,0.00,WeatherTracker,2014-03-05 23:31:00,
2014-03-05 15:36:00,62.3,55.3,29.96,SSW,206,21.0,21.0,78,0.00,,,0.00,WeatherTracker,2014-03-05 23:36:00,
2014-03-05 15:41:00,62.1,55.2,29.96,WSW,239,21.0,21.0,78,0.00,,,0.00,WeatherTracker,2014-03-05 23:41:00,
2014-03-05 15:46:00,62.0,55.1,29.97,SSW,196,14.0,25.0,78,0.00,,,0.00,WeatherTracker,2014-03-05 23:46:00,
2014-03-05 15:51:00,61.8,55.2,29.97,WSW,239,10.0,25.0,79,0.00,,,0.00,WeatherTracker,2014-03-05 23:51:00,
2014-03-05 15:56:00,61.6,55.0,29.97,SSW,203,11.0,22.0,79,0.00,,,0.00,WeatherTracker,2014-03-05 23:56:00,
2014-03-05 16:01:00,61.5,54.6,29.97,South,190,14.0,22.0,78,0.00,,,0.00,WeatherTracker,2014-03-06 00:01:00,
2014-03-05 16:06:00,61.4,55.2,29.97,SW,215,6.0,22.0,80,0.00,,,0.00,WeatherTracker,2014-03-06 00:06:00,
2014-03-05 16:11:00,60.9,55.0,29.97,SW,214,11.0,22.0,81,0.00,,,0.00,WeatherTracker,2014-03-06 00:11:00,
2014-03-05 16:16:00,60.4,55.2,29.97,SSW,210,10.0,19.0,83,0.00,,,0.00,WeatherTracker,2014-03-06 00:16:00,
2014-03-05 16:21:00,59.7,54.9,29.97,South,189,12.0,22.0,84,0.00,,,0.00,WeatherTracker,2014-03-06 00:21:00,
2014-03-05 16:26:00,59.1,54.9,29.97,SSW,206,10.0,22.0,86,0.01,,,0.01,WeatherTracker,2014-03-06 00:26:00,
2014-03-05 16:31:00,58.9,55.0,29.97,South,187,9.0,22.0,87,0.01,,,0.01,WeatherTracker,2014-03-06 00:31:00,
2014-03-05 16:36:00,58.6,55.1,29.97,SW,217,11.0,20.0,88,0.01,,,0.01,WeatherTracker,2014-03-06 00:36:00,
2014-03-05 16:41:00,58.4,54.9,29.97,South,191,13.0,20.0,88,0.01,,,0.01,WeatherTracker,2014-03-06 00:41:00,
2014-03-05 16:46:00,58.7,55.2,29.96,SW,220,12.0,17.0,88,0.01,,,0.01,WeatherTracker,2014-03-06 00:46:00,
2014-03-05 16:51:00,58.9,55.0,29.96,South,179,19.0,19.0,87,0.01,,,0.01,WeatherTracker,2014-03-06 00:51:00,
2014-03-05 16:56:00,59.2,54.7,29.96,South,184,10.0,22.0,85,0.01,,,0.01,WeatherTracker,2014-03-06 00:56:00,
2014-03-05 17:01:00,59.1,54.6,29.96,South,191,9.0,22.0,85,0.01,,,0.01,WeatherTracker,2014-03-06 01:01:00,
2014-03-05 17:06:00,58.9,54.4,29.96,South,175,12.0,22.0,85,0.01,,,0.01,WeatherTracker,2014-03-06 01:06:00,
2014-03-05 17:11:00,58.8,54.6,29.96,SSW,192,5.0,22.0,86,0.01,,,0.01,WeatherTracker,2014-03-06 01:11:00,
2014-03-05 17:16:00,58.5,54.6,29.96,SW,214,9.0,19.0,87,0.01,,,0.01,WeatherTracker,2014-03-06 01:16:00,
2014-03-05 17:21:00,58.4,54.5,29.96,SSW,204,10.0,19.0,87,0.01,,,0.01,WeatherTracker,2014-03-06 01:21:00,
2014-03-05 17:26:00,58.5,54.6,29.96,SSW,192,16.0,19.0,87,0.00,,,0.01,WeatherTracker,2014-03-06 01:26:00,
2014-03-05 17:31:00,58.6,54.7,29.96,South,186,14.0,20.0,87,0.00,,,0.01,WeatherTracker,2014-03-06 01:31:00,
2014-03-05 17:36:00,58.5,54.6,29.96,South,175,15.0,20.0,87,0.00,,,0.01,WeatherTracker,2014-03-06 01:36:00,
2014-03-05 17:41:00,58.6,54.7,29.96,SSW,195,17.0,26.0,87,0.00,,,0.01,WeatherTracker,2014-03-06 01:41:00,
2014-03-05 17:47:00,58.8,54.6,29.96,SSW,198,14.0,27.0,86,0.01,,,0.02,WeatherTracker,2014-03-06 01:47:00,
2014-03-05 17:52:00,58.8,54.6,29.96,South,170,17.0,27.0,86,0.01,,,0.02,WeatherTracker,2014-03-06 01:52:00,
2014-03-05 17:57:00,58.8,54.6,29.96,South,187,18.0,22.0,86,0.01,,,0.02,WeatherTracker,2014-03-06 01:57:00,
2014-03-05 18:02:00,58.7,54.8,29.96,SSE,165,9.0,24.0,87,0.01,,,0.02,WeatherTracker,2014-03-06 02:02:00,
2014-03-05 18:07:00,58.7,54.8,29.96,South,183,13.0,25.0,87,0.01,,,0.02,WeatherTracker,2014-03-06 02:07:00,
2014-03-05 18:12:00,58.7,54.8,29.96,South,176,15.0,25.0,87,0.01,,,0.02,WeatherTracker,2014-03-06 02:12:00,
2014-03-05 18:17:00,58.8,54.9,29.96,South,175,10.0,25.0,87,0.01,,,0.02,WeatherTracker,2014-03-06 02:17:00,
2014-03-05 18:22:00,58.7,54.8,29.96,SSW,195,17.0,24.0,87,0.01,,,0.02,WeatherTracker,2014-03-06 02:22:00,
2014-03-05 18:27:00,58.8,54.9,29.96,South,178,11.0,27.0,87,0.01,,,0.02,WeatherTracker,2014-03-06 02:27:00,
2014-03-05 18:32:00,58.8,54.9,29.95,SSW,195,19.0,27.0,87,0.01,,,0.02,WeatherTracker,2014-03-06 02:32:00,
2014-03-05 18:37:00,58.9,55.0,29.95,South,169,10.0,26.0,87,0.01,,,0.02,WeatherTracker,2014-03-06 02:37:00,
2014-03-05 18:42:00,58.9,55.0,29.95,South,184,17.0,24.0,87,0.01,,,0.02,WeatherTracker,2014-03-06 02:42:00,
2014-03-05 18:47:00,59.2,55.6,29.94,South,171,12.0,24.0,88,0.00,,,0.02,WeatherTracker,2014-03-06 02:47:00,
2014-03-05 18:52:00,59.3,55.7,29.94,South,182,9.0,21.0,88,0.00,,,0.02,WeatherTracker,2014-03-06 02:52:00,
2014-03-05 18:57:00,59.6,56.0,29.94,South,189,10.0,16.0,88,0.00,,,0.02,WeatherTracker,2014-03-06 02:57:00,
2014-03-05 19:02:00,59.9,56.3,29.94,SSW,194,6.0,16.0,88,0.00,,,0.02,WeatherTracker,2014-03-06 03:02:00,
2014-03-05 19:07:00,60.0,56.4,29.94,South,184,7.0,15.0,88,0.00,,,0.02,WeatherTracker,2014-03-06 03:07:00,
2014-03-05 19:13:00,60.2,56.6,29.94,South,191,11.0,15.0,88,0.00,,,0.02,WeatherTracker,2014-03-06 03:13:00,
2014-03-05 19:18:00,60.3,56.4,29.94,South,188,11.0,15.0,87,0.00,,,0.02,WeatherTracker,2014-03-06 03:18:00,
2014-03-05 19:23:00,60.4,56.8,29.94,South,181,12.0,16.0,88,0.00,,,0.02,WeatherTracker,2014-03-06 03:23:00,
2014-03-05 19:28:00,60.4,56.8,29.94,South,184,15.0,17.0,88,0.00,,,0.02,WeatherTracker,2014-03-06 03:28:00,
2014-03-05 19:33:00,60.5,56.9,29.93,South,184,13.0,17.0,88,0.00,,,0.02,WeatherTracker,2014-03-06 03:33:00,
2014-03-05 19:38:00,60.5,56.9,29.93,South,181,15.0,18.0,88,0.00,,,0.02,WeatherTracker,2014-03-06 03:38:00,
2014-03-05 19:43:00,60.7,57.1,29.93,South,182,9.0,18.0,88,0.00,,,0.02,WeatherTracker,2014-03-06 03:43:00,
2014-03-05 19:48:00,60.8,57.2,29.93,South,184,6.0,18.0,88,0.00,,,0.02,WeatherTracker,2014-03-06 03:48:00,
2014-03-05 19:53:00,60.9,57.6,29.93,South,190,13.0,14.0,89,0.00,,,0.02,WeatherTracker,2014-03-06 03:53:00,
2014-03-05 19:58:00,61.0,57.7,29.93,South,175,6.0,19.0,89,0.00,,,0.02,WeatherTracker,2014-03-06 03:58:00,
2014-03-05 20:03:00,61.0,57.7,29.93,South,191,11.0,19.0,89,0.00,,,0.02,WeatherTracker,2014-03-06 04:03:00,
2014-03-05 20:08:00,61.0,57.7,29.93,SSW,194,23.0,23.0,89,0.00,,,0.02,WeatherTracker,2014-03-06 04:08:00,
2014-03-05 20:13:00,61.1,57.8,29.93,SSE,167,9.0,23.0,89,0.00,,,0.02,WeatherTracker,2014-03-06 04:13:00,
2014-03-05 20:18:00,61.3,58.3,29.92,South,186,22.0,27.0,90,0.00,,,0.02,WeatherTracker,2014-03-06 04:18:00,
2014-03-05 20:23:00,61.0,57.7,29.92,SE,144,18.0,27.0,89,0.00,,,0.02,WeatherTracker,2014-03-06 04:23:00,
2014-03-05 20:28:00,60.9,57.9,29.92,SSE,163,6.0,24.0,90,0.00,,,0.02,WeatherTracker,2014-03-06 04:28:00,
2014-03-05 20:33:00,60.7,57.7,29.93,South,182,12.0,24.0,90,0.00,,,0.02,WeatherTracker,2014-03-06 04:33:00,
2014-03-05 20:38:00,60.7,57.7,29.93,SSW,194,13.0,20.0,90,0.00,,,0.02,WeatherTracker,2014-03-06 04:38:00,
2014-03-05 20:43:00,60.7,57.7,29.92,South,172,11.0,24.0,90,0.00,,,0.02,WeatherTracker,2014-03-06 04:43:00,
2014-03-05 20:48:00,60.5,57.5,29.92,SSE,152,16.0,24.0,90,0.00,,,0.02,WeatherTracker,2014-03-06 04:48:00,
2014-03-05 20:54:00,60.3,57.7,29.92,South,185,23.0,28.0,91,0.00,,,0.02,WeatherTracker,2014-03-06 04:54:00,
2014-03-05 20:59:00,59.9,57.6,29.92,South,181,14.0,35.0,92,0.00,,,0.02,WeatherTracker,2014-03-06 04:59:00,
2014-03-05 21:01:00,59.8,57.5,29.92,SSW,196,17.0,35.0,92,0.00,,,0.02,WeatherTracker,2014-03-06 05:01:00,
2014-03-05 21:02:00,59.8,57.5,29.92,South,185,13.0,35.0,92,0.00,,,0.02,WeatherTracker,2014-03-06 05:02:00,
2014-03-05 21:07:00,59.6,57.6,29.92,South,180,14.0,33.0,93,0.00,,,0.02,WeatherTracker,2014-03-06 05:07:00,
2014-03-05 21:12:00,59.4,57.4,29.92,SSW,213,11.0,33.0,93,0.00,,,0.02,WeatherTracker,2014-03-06 05:12:00,
2014-03-05 21:17:00,59.4,57.4,29.93,SSE,163,17.0,30.0,93,0.00,,,0.02,WeatherTracker,2014-03-06 05:17:00,
2014-03-05 21:22:00,59.3,57.6,29.93,South,175,22.0,31.0,94,0.00,,,0.02,WeatherTracker,2014-03-06 05:22:00,
2014-03-05 21:27:00,59.2,57.5,29.93,SSW,197,18.0,35.0,94,0.01,,,0.03,WeatherTracker,2014-03-06 05:27:00,
2014-03-05 21:32:00,59.0,57.3,29.93,South,189,21.0,35.0,94,0.01,,,0.03,WeatherTracker,2014-03-06 05:32:00,
2014-03-05 21:37:00,59.0,57.3,29.93,South,174,27.0,31.0,94,0.01,,,0.03,WeatherTracker,2014-03-06 05:37:00,
2014-03-05 21:42:00,59.2,57.5,29.93,SSW,196,22.0,31.0,94,0.02,,,0.04,WeatherTracker,2014-03-06 05:42:00,
2014-03-05 21:47:00,59.3,57.6,29.95,South,178,13.0,31.0,94,0.03,,,0.05,WeatherTracker,2014-03-06 05:47:00,
2014-03-05 21:52:00,59.3,57.6,29.95,SSW,199,23.0,33.0,94,0.03,,,0.05,WeatherTracker,2014-03-06 05:52:00,
2014-03-05 21:57:00,59.3,57.6,29.95,South,178,12.0,40.0,94,0.04,,,0.06,WeatherTracker,2014-03-06 05:57:00,
2014-03-05 22:02:00,59.4,57.7,29.95,SSW,193,21.0,40.0,94,0.05,,,0.07,WeatherTracker,2014-03-06 06:02:00,
2014-03-05 22:07:00,59.3,57.6,29.95,South,191,20.0,32.0,94,0.07,,,0.09,WeatherTracker,2014-03-06 06:07:00,
2014-03-05 22:12:00,59.4,57.7,29.95,SSW,210,16.0,33.0,94,0.08,,,0.10,WeatherTracker,2014-03-06 06:12:00,
2014-03-05 22:17:00,59.1,57.4,29.95,South,183,18.0,35.0,94,0.09,,,0.11,WeatherTracker,2014-03-06 06:17:00,
2014-03-05 22:22:00,59.1,57.4,29.95,South,180,16.0,35.0,94,0.10,,,0.12,WeatherTracker,2014-03-06 06:22:00,
2014-03-05 22:27:00,59.0,57.3,29.95,SSW,202,19.0,32.0,94,0.10,,,0.13,WeatherTracker,2014-03-06 06:27:00,
2014-03-05 22:32:00,58.9,57.2,29.96,South,178,14.0,30.0,94,0.11,,,0.14,WeatherTracker,2014-03-06 06:32:00,
2014-03-05 22:37:00,58.9,57.2,29.96,South,180,35.0,35.0,94,0.11,,,0.15,WeatherTracker,2014-03-06 06:37:00,
2014-03-05 22:42:00,58.9,57.5,29.96,SE,138,24.0,42.0,95,0.13,,,0.17,WeatherTracker,2014-03-06 06:42:00,
2014-03-05 22:48:00,58.7,57.0,29.96,South,190,22.0,42.0,94,0.12,,,0.17,WeatherTracker,2014-03-06 06:48:00,
2014-03-05 22:50:00,58.6,56.9,29.96,SSE,166,12.0,30.0,94,0.13,,,0.18,WeatherTracker,2014-03-06 06:50:00,
2014-03-05 22:55:00,58.6,56.9,29.96,SW,223,10.0,31.0,94,0.13,,,0.19,WeatherTracker,2014-03-06 06:55:00,
2014-03-05 23:00:00,58.6,57.2,29.97,South,180,13.0,40.0,95,0.13,,,0.20,WeatherTracker,2014-03-06 07:00:00,
2014-03-05 23:05:00,58.4,57.0,29.97,SSE,147,10.0,40.0,95,0.13,,,0.21,WeatherTracker,2014-03-06 07:05:00,
2014-03-05 23:10:00,58.3,56.9,29.97,SE,138,16.0,25.0,95,0.12,,,0.21,WeatherTracker,2014-03-06 07:10:00,
2014-03-05 23:15:00,58.4,57.0,29.98,ESE,114,6.0,25.0,95,0.11,,,0.22,WeatherTracker,2014-03-06 07:15:00,
2014-03-05 23:20:00,58.3,56.9,29.98,SE,144,10.0,21.0,95,0.11,,,0.23,WeatherTracker,2014-03-06 07:20:00,
2014-03-05 23:25:00,58.2,56.8,29.98,SSE,155,10.0,34.0,95,0.11,,,0.24,WeatherTracker,2014-03-06 07:25:00,
2014-03-05 23:30:00,58.1,56.7,29.98,East,99,10.0,34.0,95,0.11,,,0.25,WeatherTracker,2014-03-06 07:30:00,
2014-03-05 23:35:00,58.0,56.6,29.98,NNW,334,2.0,19.0,95,0.10,,,0.25,WeatherTracker,2014-03-06 07:35:00,
2014-03-05 23:40:00,58.0,56.6,29.98,SE,143,15.0,17.0,95,0.10,,,0.26,WeatherTracker,2014-03-06 07:40:00,
2014-03-05 23:45:00,57.9,56.5,29.98,SSE,161,11.0,16.0,95,0.10,,,0.27,WeatherTracker,2014-03-06 07:45:00,
2014-03-05 23:50:00,57.8,56.4,29.98,ESE,122,5.0,19.0,95,0.09,,,0.27,WeatherTracker,2014-03-06 07:50:00,
2014-03-05 23:55:00,57.7,56.3,29.98,NE,53,4.0,19.0,95,0.09,,,0.28,WeatherTracker,2014-03-06 07:55:00,